METAR LOCAUX

2023/01/27 02:00 LFST 270200Z AUTO 02004KT 6000 OVC012 M01/M02 Q1020 TEMPO 4000 BR OVC003
2023/01/27 02:20 EDSB 270220Z AUTO 02004KT 9999 OVC022/// M01/M03 Q1020
2023/01/27 02:00 LFGA 270200Z AUTO 35005KT 9999 OVC022 M00/M04 Q1020
www.noaa.gov

Ne pas utiliser pour préparer ou effectuer un vol: Utilisez la documentation officielle disponible sur aviation.meteo.fr (Aéroweb)


"Le soleil du matin ne dure pas forcément toute la journée."

Animation satellite IR

Meteociel.fr

"Derrière chaque nuage se cache le ciel bleu."

Radar pluie

Infoclimat.fr

"Si tu veux l’arc-en-ciel, tu dois supporter la pluie."
Dolly Parton

Nébulosité (octas)

Meteociel.fr

"Le soleil est souvent obscurci par les nuages et la raison par les passions."
Démophile

Impacts de foudre

www.meteo60.fr

"Celui que frappe la foudre n'entend pas le tonnerre."

Vigilance météo

vigilance-meteo.fr

"Tout nuage n'enfante pas une tempête."
William Shakespeare

TAF locaux

2023/01/26 18:24 TAF TAF LFST 261700Z 2618/2718 02008KT 9999 OVC020 TEMPO 2620/2709 4000 BR BKN008 PROB30 TEMPO 2700/2706 -SN BKN005
2023/01/26 22:09 TAF AMD EDSB 262200Z 2622/2718 35006KT 9999 FEW010 OVC020 TEMPO 2622/2703 4000 -SN BR OVC008 BECMG 2706/2709 05011KT
www.noaa.gov

Ne pas utiliser pour préparer ou effectuer un vol: Utilisez la documentation officielle disponible sur aviation.meteo.fr (Aéroweb)


"Les jours où le ciel est gris, le soleil n'a pas disparu à tout jamais."
Arnaud Desjardins

Prévisions 7 jours


Meteoblue.com

"Quand les crapauds chantent, le beau temps s'avance !"